createdAt,value
2022-08-28T00:00:25.513Z,98912.66
2022-08-28T00:02:53.014Z,98917.00
2022-08-28T00:05:22.775Z,98906.66
2022-08-28T00:07:49.583Z,98913.69
2022-08-28T00:10:19.151Z,98907.50
2022-08-28T00:12:48.128Z,98904.84
2022-08-28T00:15:20.373Z,98907.53
2022-08-28T00:17:49.071Z,98892.69
2022-08-28T00:20:18.731Z,98897.41
2022-08-28T00:22:45.736Z,98888.56
2022-08-28T00:25:14.387Z,98893.69
2022-08-28T00:27:53.055Z,98892.28
2022-08-28T00:30:59.269Z,98887.28
2022-08-28T00:33:26.154Z,98887.44
2022-08-28T00:35:52.941Z,98882.81
2022-08-28T00:38:21.454Z,98881.13
2022-08-28T00:40:52.335Z,98877.66
2022-08-28T00:43:41.616Z,98866.63
2022-08-28T00:46:15.068Z,98869.88
2022-08-28T00:48:42.516Z,98864.13
2022-08-28T00:51:29.749Z,98860.16
2022-08-28T00:53:59.137Z,98853.13
2022-08-28T00:56:29.129Z,98852.88
2022-08-28T00:58:58.252Z,98853.19
2022-08-28T01:01:25.257Z,98846.91
2022-08-28T01:03:52.015Z,98837.81
2022-08-28T01:06:22.255Z,98826.84
2022-08-28T01:08:50.664Z,98833.81
2022-08-28T01:11:19.581Z,98827.94
2022-08-28T01:13:48.544Z,98828.69
2022-08-28T01:16:21.464Z,98829.09
2022-08-28T01:18:49.743Z,98825.41
2022-08-28T01:21:33.396Z,98816.38
2022-08-28T01:24:06.391Z,98816.34
2022-08-28T01:26:33.042Z,98805.25
2022-08-28T01:29:01.247Z,98796.31
2022-08-28T01:31:31.312Z,98794.22
2022-08-28T01:34:01.255Z,98803.72
2022-08-28T01:36:29.331Z,98798.75
2022-08-28T01:39:14.983Z,98805.50
2022-08-28T01:41:45.757Z,98805.72
2022-08-28T01:44:15.212Z,98803.22
2022-08-28T01:46:45.363Z,98802.03
2022-08-28T01:49:12.431Z,98803.25
2022-08-28T01:51:41.152Z,98800.03
2022-08-28T01:54:09.852Z,98809.06
2022-08-28T01:56:37.786Z,98807.38
2022-08-28T01:59:07.576Z,98807.09
2022-08-28T02:01:34.315Z,98808.94
2022-08-28T02:04:04.314Z,98810.69
2022-08-28T02:06:31.975Z,98818.41
2022-08-28T02:08:59.497Z,98822.66
2022-08-28T02:11:27.255Z,98815.78
2022-08-28T02:13:54.532Z,98811.88
2022-08-28T02:16:23.577Z,98820.09
2022-08-28T02:18:50.314Z,98815.91
2022-08-28T02:21:17.362Z,98820.00
2022-08-28T02:23:45.218Z,98819.72
2022-08-28T02:26:13.565Z,98817.53
2022-08-28T02:28:41.144Z,98812.59
2022-08-28T02:31:10.771Z,98811.31
2022-08-28T02:33:43.630Z,98811.28
2022-08-28T02:36:12.663Z,98818.50
2022-08-28T02:38:39.543Z,98813.53
2022-08-28T02:41:07.102Z,98815.34
2022-08-28T02:43:34.427Z,98812.81
2022-08-28T02:46:01.228Z,98823.19
2022-08-28T02:48:29.913Z,98820.78
2022-08-28T02:50:59.277Z,98816.75
2022-08-28T02:53:26.175Z,98818.38
2022-08-28T02:55:52.931Z,98820.00
2022-08-28T02:58:19.614Z,98817.75
2022-08-28T03:00:46.463Z,98818.78
2022-08-28T03:03:13.259Z,98819.31
2022-08-28T03:05:39.946Z,98828.13
2022-08-28T03:08:06.871Z,98824.31
2022-08-28T03:10:33.835Z,98829.19
2022-08-28T03:13:00.514Z,98834.03
2022-08-28T03:15:27.259Z,98831.19
2022-08-28T03:17:54.114Z,98825.84
2022-08-28T03:20:20.941Z,98828.38
2022-08-28T03:23:06.707Z,98828.56
2022-08-28T03:25:33.397Z,98827.78
2022-08-28T03:28:00.126Z,98831.34
2022-08-28T03:30:27.324Z,98833.06
2022-08-28T03:32:54.151Z,98844.44
2022-08-28T03:35:21.898Z,98841.56
2022-08-28T03:37:48.851Z,98834.22
2022-08-28T03:40:15.994Z,98828.47
2022-08-28T03:42:42.725Z,98822.78
2022-08-28T03:45:19.710Z,98815.16
2022-08-28T03:47:46.703Z,98810.44
2022-08-28T03:50:13.684Z,98812.47
2022-08-28T03:52:41.286Z,98809.25
2022-08-28T03:55:10.983Z,98813.16
2022-08-28T03:57:38.133Z,98816.19
2022-08-28T04:00:09.909Z,98817.81
2022-08-28T04:02:41.291Z,98825.19
2022-08-28T04:05:08.837Z,98828.94
2022-08-28T04:07:35.684Z,98836.34
2022-08-28T04:10:03.195Z,98842.09
2022-08-28T04:12:29.859Z,98846.66
2022-08-28T04:15:02.018Z,98853.28
2022-08-28T04:17:28.642Z,98861.69
2022-08-28T04:19:55.330Z,98866.19
2022-08-28T04:22:22.511Z,98873.78
2022-08-28T04:24:50.475Z,98876.28
2022-08-28T04:27:17.150Z,98876.31
2022-08-28T04:29:43.807Z,98881.28
2022-08-28T04:32:10.554Z,98879.59
2022-08-28T04:34:38.563Z,98881.44
2022-08-28T04:37:06.417Z,98882.44
2022-08-28T04:39:33.964Z,98888.63
2022-08-28T04:42:00.903Z,98890.69
2022-08-28T04:44:27.846Z,98892.13
2022-08-28T04:46:54.498Z,98895.38
2022-08-28T04:49:22.989Z,98898.84
2022-08-28T04:51:52.742Z,98903.09
2022-08-28T04:54:20.357Z,98904.22
2022-08-28T04:56:47.115Z,98903.88
2022-08-28T04:59:13.910Z,98908.97
2022-08-28T05:01:42.650Z,98908.59
2022-08-28T05:04:11.390Z,98908.59
2022-08-28T05:06:43.443Z,98916.00
2022-08-28T05:09:10.222Z,98908.19
2022-08-28T05:11:36.857Z,98912.47
2022-08-28T05:14:05.068Z,98913.25
2022-08-28T05:16:34.718Z,98915.41
2022-08-28T05:19:02.767Z,98921.91
2022-08-28T05:21:29.518Z,98923.59
2022-08-28T05:23:57.723Z,98911.44
2022-08-28T05:26:26.916Z,98922.84
2022-08-28T05:28:55.758Z,98917.56
2022-08-28T05:31:23.796Z,98922.66
2022-08-28T05:33:52.801Z,98915.53
2022-08-28T05:36:22.893Z,98916.59
2022-08-28T05:38:51.231Z,98921.81
2022-08-28T05:41:29.140Z,98929.13
2022-08-28T05:43:59.127Z,98932.09
2022-08-28T05:46:28.224Z,98935.38
2022-08-28T05:48:55.921Z,98934.88
2022-08-28T05:51:26.616Z,98931.34
2022-08-28T05:53:55.148Z,98934.34
2022-08-28T05:56:25.634Z,98930.09
2022-08-28T05:58:52.490Z,98931.06
2022-08-28T06:01:23.214Z,98936.50
2022-08-28T06:03:56.856Z,98940.50
2022-08-28T06:06:25.494Z,98938.31
2022-08-28T06:08:58.786Z,98941.50
2022-08-28T06:11:28.801Z,98937.09
2022-08-28T06:14:09.444Z,98946.88
2022-08-28T06:16:38.908Z,98938.81
2022-08-28T06:19:06.582Z,98943.78
2022-08-28T06:21:33.558Z,98946.84
2022-08-28T06:24:00.434Z,98941.03
2022-08-28T06:26:27.555Z,98941.94
2022-08-28T06:28:54.420Z,98941.34
2022-08-28T06:31:23.330Z,98944.88
2022-08-28T06:33:56.043Z,98947.31
2022-08-28T06:36:24.152Z,98948.88
2022-08-28T06:38:51.337Z,98949.97
2022-08-28T06:41:18.381Z,98958.25
2022-08-28T06:43:45.070Z,98950.72
2022-08-28T06:46:11.845Z,98961.19
2022-08-28T06:48:38.527Z,98956.09
2022-08-28T06:51:10.150Z,98959.63
2022-08-28T06:53:38.352Z,98965.91
2022-08-28T06:56:11.547Z,98960.88
2022-08-28T06:58:50.069Z,98960.72
2022-08-28T07:01:22.880Z,98961.56
2022-08-28T07:03:53.022Z,98967.91
2022-08-28T07:06:21.730Z,98967.19
2022-08-28T07:08:48.530Z,98967.59
2022-08-28T07:11:26.656Z,98964.28
2022-08-28T07:13:54.566Z,98969.41
2022-08-28T07:16:25.284Z,98968.28
2022-08-28T07:18:51.999Z,98968.28
2022-08-28T07:21:20.450Z,98968.13
2022-08-28T07:23:47.321Z,98972.69
2022-08-28T07:26:22.805Z,98969.53
2022-08-28T07:28:51.254Z,98968.13
2022-08-28T07:31:22.529Z,98967.91
2022-08-28T07:33:50.798Z,98968.25
2022-08-28T07:36:29.555Z,98968.63
2022-08-28T07:38:59.111Z,98964.25
2022-08-28T07:41:32.528Z,98971.06
2022-08-28T07:44:17.974Z,98970.69
2022-08-28T07:46:45.730Z,98974.09
2022-08-28T07:49:15.543Z,98971.91
2022-08-28T07:51:42.357Z,98971.41
2022-08-28T07:54:12.982Z,98973.97
2022-08-28T07:56:44.849Z,98963.44
2022-08-28T07:59:11.695Z,98967.34
2022-08-28T08:01:42.928Z,98958.53
2022-08-28T08:04:12.816Z,98956.44
2022-08-28T08:06:41.201Z,98962.00
2022-08-28T08:09:09.995Z,98959.16
2022-08-28T08:11:36.695Z,98970.44
2022-08-28T08:14:05.480Z,98976.53
2022-08-28T08:16:39.097Z,98973.69
2022-08-28T08:19:09.626Z,98966.56
2022-08-28T08:21:37.286Z,98965.91
2022-08-28T08:24:04.499Z,98959.66
2022-08-28T08:26:31.330Z,98964.75
2022-08-28T08:28:58.888Z,98962.03
2022-08-28T08:31:29.714Z,98965.94
2022-08-28T08:34:01.851Z,98971.94
2022-08-28T08:36:29.542Z,98975.63
2022-08-28T08:38:59.449Z,98976.44
2022-08-28T08:41:33.457Z,98978.00
2022-08-28T08:44:23.467Z,98977.91
2022-08-28T08:47:25.020Z,98983.41
2022-08-28T08:49:58.302Z,98989.81
2022-08-28T08:52:31.379Z,98991.25
2022-08-28T08:55:00.745Z,98985.13
2022-08-28T08:57:28.974Z,98976.63
2022-08-28T08:59:55.639Z,98981.41
2022-08-28T09:02:31.370Z,98985.47
2022-08-28T09:05:06.176Z,98988.00
2022-08-28T09:07:41.911Z,98985.44
2022-08-28T09:10:12.326Z,98983.59
2022-08-28T09:13:14.413Z,98985.66
2022-08-28T09:15:48.675Z,98983.97
2022-08-28T09:18:23.612Z,98986.38
2022-08-28T09:20:58.807Z,98978.50
2022-08-28T09:23:27.316Z,98981.03
2022-08-28T09:26:01.774Z,98978.75
2022-08-28T09:29:17.725Z,98982.41
2022-08-28T09:31:44.829Z,98974.13
2022-08-28T09:34:27.673Z,98979.19
2022-08-28T09:36:57.219Z,98990.31
2022-08-28T09:39:25.707Z,98982.22
2022-08-28T09:42:14.029Z,98980.19
2022-08-28T09:45:18.668Z,98987.75
2022-08-28T09:47:55.527Z,98980.91
2022-08-28T09:50:39.478Z,98962.75
2022-08-28T09:53:08.851Z,98967.88
2022-08-28T09:56:14.240Z,98984.59
2022-08-28T09:58:53.503Z,98986.25
2022-08-28T10:01:44.682Z,98992.13
2022-08-28T10:04:18.071Z,98973.16
2022-08-28T10:06:49.836Z,98978.38
2022-08-28T10:09:47.811Z,98987.81
2022-08-28T10:12:17.536Z,98971.41
2022-08-28T10:15:00.945Z,98962.97
2022-08-28T10:17:48.585Z,98969.84
2022-08-28T10:20:53.126Z,98977.38
2022-08-28T10:23:28.727Z,98975.81
2022-08-28T10:26:16.983Z,98976.56
2022-08-28T10:28:58.597Z,98967.63
2022-08-28T10:31:49.999Z,98969.09
2022-08-28T10:34:35.135Z,98969.03
2022-08-28T10:37:39.161Z,98967.03
2022-08-28T10:40:14.402Z,98975.63
2022-08-28T10:42:47.318Z,98981.47
2022-08-28T10:45:22.805Z,98965.75
2022-08-28T10:47:55.606Z,98972.31
2022-08-28T10:50:27.061Z,98969.09
2022-08-28T10:53:03.059Z,98963.38
2022-08-28T10:55:36.682Z,98956.16
2022-08-28T10:58:25.073Z,98963.44
2022-08-28T11:01:01.200Z,98942.53
2022-08-28T11:03:35.546Z,98952.13
2022-08-28T11:06:22.299Z,98937.81
2022-08-28T11:08:56.240Z,98953.69
2022-08-28T11:12:01.626Z,98961.25
2022-08-28T11:14:31.392Z,98963.22
2022-08-28T11:17:05.529Z,98973.34
2022-08-28T11:20:04.351Z,98958.88
2022-08-28T11:22:52.975Z,98953.38
2022-08-28T11:25:26.683Z,98956.88
2022-08-28T11:28:25.562Z,98960.53
2022-08-28T11:30:58.422Z,98965.94
2022-08-28T11:33:39.228Z,98968.47
2022-08-28T11:36:17.971Z,98963.28
2022-08-28T11:38:44.539Z,98963.16
2022-08-28T11:41:15.598Z,98960.53
2022-08-28T11:43:44.212Z,98953.47
2022-08-28T11:46:33.930Z,98961.00
2022-08-28T11:49:02.762Z,98951.88
2022-08-28T11:51:52.429Z,98958.63
2022-08-28T11:54:37.887Z,98978.13
2022-08-28T11:57:14.527Z,98962.28
2022-08-28T12:00:22.562Z,98965.63
2022-08-28T12:03:22.783Z,98967.72
2022-08-28T12:05:52.370Z,98960.78
2022-08-28T12:08:53.044Z,98969.97
2022-08-28T12:11:41.787Z,98970.91
2022-08-28T12:14:33.324Z,98972.72
2022-08-28T12:16:59.926Z,98976.06
2022-08-28T12:19:36.421Z,98975.59
2022-08-28T12:22:13.616Z,98973.41
2022-08-28T12:25:04.779Z,98978.66
2022-08-28T12:27:31.981Z,98974.84
2022-08-28T12:30:02.843Z,98970.34
2022-08-28T12:32:55.662Z,98971.41
2022-08-28T12:35:30.233Z,98973.91
2022-08-28T12:37:57.341Z,98963.78
2022-08-28T12:40:28.814Z,98967.00
2022-08-28T12:43:40.820Z,98974.53
2022-08-28T12:46:20.814Z,98976.72
2022-08-28T12:49:02.540Z,98981.94
2022-08-28T12:51:30.265Z,98984.00
2022-08-28T12:54:00.226Z,98987.75
2022-08-28T12:56:30.155Z,98982.38
2022-08-28T12:59:27.228Z,98973.88
2022-08-28T13:01:54.923Z,98978.16
2022-08-28T13:04:33.010Z,98978.84
2022-08-28T13:07:11.991Z,98985.44
2022-08-28T13:09:46.731Z,98981.59
2022-08-28T13:12:34.893Z,98989.03
2022-08-28T13:15:12.119Z,98995.00
2022-08-28T13:17:52.721Z,98992.47
2022-08-28T13:20:31.444Z,99001.63
2022-08-28T13:22:59.142Z,98995.53
2022-08-28T13:25:37.715Z,98997.09
2022-08-28T13:28:13.078Z,99004.81
2022-08-28T13:30:40.188Z,99012.28
2022-08-28T13:33:21.302Z,99017.41
2022-08-28T13:35:48.810Z,99021.13
2022-08-28T13:38:18.246Z,99026.91
2022-08-28T13:41:02.172Z,99019.06
2022-08-28T13:43:41.986Z,99017.31
2022-08-28T13:46:08.775Z,99010.31
2022-08-28T13:48:35.640Z,99010.69
2022-08-28T13:51:10.683Z,99014.53
2022-08-28T13:53:38.668Z,99003.28
2022-08-28T13:56:06.034Z,99002.91
2022-08-28T13:58:32.747Z,99005.59
2022-08-28T14:01:00.009Z,99012.88
2022-08-28T14:03:37.548Z,99010.72
2022-08-28T14:06:07.538Z,99014.56
2022-08-28T14:08:34.407Z,99013.69
2022-08-28T14:11:01.710Z,99025.09
2022-08-28T14:13:28.871Z,99036.00
2022-08-28T14:15:56.879Z,99041.66
2022-08-28T14:18:25.106Z,99041.31
2022-08-28T14:20:52.235Z,99048.81
2022-08-28T14:23:19.022Z,99043.28
2022-08-28T14:25:47.300Z,99046.78
2022-08-28T14:28:16.304Z,99064.25
2022-08-28T14:30:51.590Z,99066.13
2022-08-28T14:33:20.591Z,99086.84
2022-08-28T14:35:49.024Z,99073.75
2022-08-28T14:38:16.282Z,99074.09
2022-08-28T14:40:44.194Z,99068.00
2022-08-28T14:43:13.046Z,99061.00
2022-08-28T14:45:48.477Z,99047.75
2022-08-28T14:48:18.067Z,99032.44
2022-08-28T14:50:47.181Z,99036.44
2022-08-28T14:53:14.498Z,99032.56
2022-08-28T14:55:43.896Z,99023.66
2022-08-28T14:58:10.760Z,99020.00
2022-08-28T15:00:42.702Z,99024.22
2022-08-28T15:03:10.312Z,99002.09
2022-08-28T15:05:37.054Z,98996.00
2022-08-28T15:08:10.650Z,99009.94
2022-08-28T15:10:39.392Z,99016.00
2022-08-28T15:13:07.815Z,99022.84
2022-08-28T15:15:39.434Z,99018.81
2022-08-28T15:18:07.953Z,99014.13
2022-08-28T15:20:52.802Z,99023.41
2022-08-28T15:23:19.740Z,99021.28
2022-08-28T15:25:46.382Z,99028.44
2022-08-28T15:28:13.161Z,99027.16
2022-08-28T15:30:40.050Z,99028.78
2022-08-28T15:33:06.814Z,99027.28
2022-08-28T15:35:34.491Z,99031.81
2022-08-28T15:38:01.262Z,99025.25
2022-08-28T15:40:46.645Z,99036.72
2022-08-28T15:43:13.424Z,99036.25
2022-08-28T15:45:41.785Z,99043.53
2022-08-28T15:48:09.471Z,99048.91
2022-08-28T15:50:36.288Z,99040.44
2022-08-28T15:53:03.897Z,99045.34
2022-08-28T15:55:33.955Z,99038.91
2022-08-28T15:58:04.288Z,99034.47
2022-08-28T16:00:35.734Z,99036.72
2022-08-28T16:03:02.420Z,99040.09
2022-08-28T16:05:34.761Z,99039.28
2022-08-28T16:08:06.363Z,99035.81
2022-08-28T16:10:33.116Z,99032.41
2022-08-28T16:13:01.094Z,99030.31
2022-08-28T16:15:27.776Z,99021.88
2022-08-28T16:17:54.461Z,99025.16
2022-08-28T16:20:21.498Z,99033.00
2022-08-28T16:22:48.159Z,99024.56
2022-08-28T16:25:14.820Z,99031.81
2022-08-28T16:27:41.530Z,99024.81
2022-08-28T16:30:08.811Z,99036.41
2022-08-28T16:32:46.804Z,99031.19
2022-08-28T16:35:15.061Z,99037.41
2022-08-28T16:37:42.172Z,99034.22
2022-08-28T16:40:12.021Z,99035.97
2022-08-28T16:42:41.749Z,99040.78
2022-08-28T16:45:17.933Z,99042.22
2022-08-28T16:47:44.671Z,99048.31
2022-08-28T16:50:12.982Z,99052.16
2022-08-28T16:52:40.142Z,99057.56
2022-08-28T16:55:09.415Z,99051.56
2022-08-28T16:57:36.736Z,99048.88
2022-08-28T17:00:07.473Z,99058.56
2022-08-28T17:02:34.328Z,99062.94
2022-08-28T17:05:03.204Z,99057.16
2022-08-28T17:07:29.896Z,99065.47
2022-08-28T17:09:56.564Z,99072.19
2022-08-28T17:12:23.317Z,99078.28
2022-08-28T17:14:50.054Z,99080.84
2022-08-28T17:17:16.725Z,99082.47
2022-08-28T17:19:43.629Z,99085.25
2022-08-28T17:22:29.210Z,99094.56
2022-08-28T17:24:55.994Z,99092.91
2022-08-28T17:27:23.485Z,99089.06
2022-08-28T17:29:50.574Z,99091.13
2022-08-28T17:32:17.586Z,99096.00
2022-08-28T17:34:44.508Z,99095.06
2022-08-28T17:37:11.425Z,99102.91
2022-08-28T17:39:38.207Z,99111.56
2022-08-28T17:42:04.971Z,99117.78
2022-08-28T17:44:31.803Z,99111.03
2022-08-28T17:46:58.508Z,99110.22
2022-08-28T17:49:26.207Z,99127.47
2022-08-28T17:51:53.409Z,99129.03
2022-08-28T17:54:22.642Z,99136.78
2022-08-28T17:56:49.860Z,99140.91
2022-08-28T17:59:16.906Z,99148.13
2022-08-28T18:01:45.260Z,99150.34
2022-08-28T18:04:13.160Z,99152.69
2022-08-28T18:06:40.463Z,99164.34
2022-08-28T18:09:08.815Z,99162.63
2022-08-28T18:11:35.647Z,99164.31
2022-08-28T18:14:02.365Z,99169.97
2022-08-28T18:16:31.987Z,99175.75
2022-08-28T18:19:02.434Z,99186.75
2022-08-28T18:21:29.458Z,99191.25
2022-08-28T18:23:56.667Z,99200.06
2022-08-28T18:26:23.791Z,99200.94
2022-08-28T18:28:51.195Z,99197.44
2022-08-28T18:31:18.423Z,99196.41
2022-08-28T18:33:45.314Z,99205.34
2022-08-28T18:36:14.993Z,99203.13
2022-08-28T18:38:43.003Z,99208.69
2022-08-28T18:41:10.534Z,99213.63
2022-08-28T18:43:37.745Z,99215.88
2022-08-28T18:46:06.067Z,99218.34
2022-08-28T18:48:32.816Z,99220.19
2022-08-28T18:50:59.567Z,99224.97
2022-08-28T18:53:26.522Z,99227.19
2022-08-28T18:55:55.050Z,99229.13
2022-08-28T18:58:23.155Z,99226.84
2022-08-28T19:00:49.935Z,99238.63
2022-08-28T19:03:16.644Z,99236.75
2022-08-28T19:05:43.515Z,99227.50
2022-08-28T19:08:10.356Z,99231.03
2022-08-28T19:10:38.085Z,99228.09
2022-08-28T19:13:06.216Z,99228.72
2022-08-28T19:15:33.691Z,99228.09
2022-08-28T19:18:01.441Z,99222.50
2022-08-28T19:20:29.207Z,99231.75
2022-08-28T19:22:56.765Z,99229.16
2022-08-28T19:25:28.517Z,99230.78
2022-08-28T19:27:58.778Z,99242.31
2022-08-28T19:30:27.630Z,99239.22
2022-08-28T19:32:54.954Z,99238.81
2022-08-28T19:35:22.294Z,99251.66
2022-08-28T19:37:52.491Z,99253.47
2022-08-28T19:40:20.824Z,99251.84
2022-08-28T19:42:49.818Z,99256.38
2022-08-28T19:45:17.746Z,99260.09
2022-08-28T19:47:44.876Z,99265.50
2022-08-28T19:50:13.916Z,99268.75
2022-08-28T19:52:40.696Z,99267.72
2022-08-28T19:55:07.927Z,99275.97
2022-08-28T19:57:35.010Z,99279.09
2022-08-28T20:00:02.787Z,99261.94
2022-08-28T20:02:31.511Z,99273.28
2022-08-28T20:04:58.928Z,99273.94
2022-08-28T20:07:25.670Z,99277.69
2022-08-28T20:09:52.515Z,99287.50
2022-08-28T20:12:19.840Z,99298.06
2022-08-28T20:14:47.341Z,99284.44
2022-08-28T20:17:14.148Z,99285.22
2022-08-28T20:19:41.380Z,99288.53
2022-08-28T20:22:08.482Z,99290.19
2022-08-28T20:24:35.145Z,99280.50
2022-08-28T20:27:01.955Z,99291.47
2022-08-28T20:29:29.194Z,99293.31
2022-08-28T20:31:56.356Z,99293.91
2022-08-28T20:34:23.461Z,99292.88
2022-08-28T20:36:50.600Z,99295.97
2022-08-28T20:39:17.576Z,99291.06
2022-08-28T20:41:46.002Z,99297.03
2022-08-28T20:44:15.978Z,99296.41
2022-08-28T20:46:42.867Z,99295.16
2022-08-28T20:49:11.042Z,99312.69
2022-08-28T20:51:53.124Z,99300.16
2022-08-28T20:54:21.528Z,99304.84
2022-08-28T20:56:49.132Z,99307.94
2022-08-28T20:59:15.915Z,99306.50
2022-08-28T21:01:42.680Z,99305.09
2022-08-28T21:04:09.936Z,99304.25
2022-08-28T21:06:38.280Z,99309.38
2022-08-28T21:09:04.931Z,99303.81
2022-08-28T21:11:31.595Z,99302.41
2022-08-28T21:13:58.318Z,99304.03
2022-08-28T21:16:25.069Z,99304.63
2022-08-28T21:19:14.713Z,99299.91
2022-08-28T21:21:38.731Z,99304.44
2022-08-28T21:24:08.112Z,99304.25
2022-08-28T21:26:37.491Z,99299.94
2022-08-28T21:29:07.124Z,99304.44
2022-08-28T21:31:34.148Z,99308.75
2022-08-28T21:34:00.827Z,99313.94
2022-08-28T21:36:27.667Z,99310.63
2022-08-28T21:38:56.205Z,99323.16
2022-08-28T21:41:22.886Z,99319.06
2022-08-28T21:43:49.532Z,99319.28
2022-08-28T21:46:16.974Z,99315.56
2022-08-28T21:48:48.579Z,99312.28
2022-08-28T21:51:18.046Z,99309.19
2022-08-28T21:53:45.177Z,99307.28
2022-08-28T21:56:16.691Z,99311.84
2022-08-28T21:58:43.442Z,99314.13
2022-08-28T22:01:16.924Z,99322.81
2022-08-28T22:03:43.854Z,99321.59
2022-08-28T22:06:18.378Z,99324.19
2022-08-28T22:08:46.143Z,99312.50
2022-08-28T22:11:14.232Z,99319.91
2022-08-28T22:13:42.790Z,99317.41
2022-08-28T22:16:10.388Z,99321.72
2022-08-28T22:18:37.908Z,99324.03
2022-08-28T22:21:23.419Z,99322.94
2022-08-28T22:23:50.502Z,99326.03
2022-08-28T22:26:20.523Z,99323.16
2022-08-28T22:28:47.349Z,99328.94
2022-08-28T22:31:14.123Z,99331.03
2022-08-28T22:33:41.266Z,99331.84
2022-08-28T22:36:09.894Z,99336.59
2022-08-28T22:38:38.429Z,99330.41
2022-08-28T22:41:06.540Z,99332.91
2022-08-28T22:43:33.447Z,99326.09
2022-08-28T22:46:00.386Z,99324.44
2022-08-28T22:48:27.046Z,99323.63
2022-08-28T22:51:04.109Z,99337.03
2022-08-28T22:53:31.157Z,99334.97
2022-08-28T22:56:00.511Z,99325.47
2022-08-28T22:58:32.547Z,99326.88
2022-08-28T23:01:02.236Z,99333.72
2022-08-28T23:03:29.075Z,99332.25
2022-08-28T23:05:56.064Z,99327.72
2022-08-28T23:08:22.740Z,99336.78
2022-08-28T23:10:59.633Z,99341.75
2022-08-28T23:13:27.365Z,99341.34
2022-08-28T23:15:54.019Z,99336.63
2022-08-28T23:18:21.186Z,99338.06
2022-08-28T23:20:50.507Z,99326.91
2022-08-28T23:23:18.987Z,99329.78
2022-08-28T23:25:45.747Z,99319.06
2022-08-28T23:28:12.553Z,99321.97
2022-08-28T23:30:41.312Z,99327.56
2022-08-28T23:33:23.861Z,99333.31
2022-08-28T23:35:51.962Z,99331.44
2022-08-28T23:38:19.290Z,99324.84
2022-08-28T23:40:48.123Z,99333.50
2022-08-28T23:43:15.146Z,99324.88
2022-08-28T23:45:43.520Z,99333.13
2022-08-28T23:48:11.375Z,99326.16
2022-08-28T23:50:41.312Z,99328.16
2022-08-28T23:53:09.262Z,99317.66
2022-08-28T23:55:36.803Z,99317.69
2022-08-28T23:58:04.587Z,99318.69
